Time;durP1;ratioP1;P1;durP2;ratioP2;P2;SDS_P1;SDS_P2;PMS_P1;PMS_P2;Temp;Humidity;BMP_temperature;BMP_pressure;BME280_temperature;BME280_humidity;BME280_pressure;Samples;Min_cycle;Max_cycle;Signal;HPM_P1;HPM_P2
2023/04/09 00:00:46;;;;;;;;;;;;;;;;;;5070142;28;19928;-65
2023/04/09 00:03:12;;;;;;;;;;;;;;;;;;5066889;28;19927;-65
2023/04/09 00:05:39;;;;;;;;;;;;;;;;;;5067880;28;19929;-66
2023/04/09 00:08:04;;;;;;;;;;;;;;;;;;5058925;28;19920;-65
2023/04/09 00:10:30;;;;;;;;;;;;;;;;;;5071097;28;20417;-65
2023/04/09 00:12:56;;;;;;;;;;;;;;;;;;5071138;28;19920;-65
2023/04/09 00:15:22;;;;;;;;;;;;;;;;;;5067756;28;19921;-65
2023/04/09 00:17:48;;;;;;;;;;;;;;;;;;5070243;28;19924;-66
2023/04/09 00:20:14;;;;;;;;;;;;;;;;;;5051470;28;19928;-65
2023/04/09 00:22:40;;;;;;;;;;;;;;;;;;5047914;28;20444;-65
2023/04/09 00:25:06;;;;;;;;;;;;;;;;;;5073778;28;19963;-65
2023/04/09 00:27:32;;;;;;;;;;;;;;;;;;5074488;28;20001;-65
2023/04/09 00:29:58;;;;;;;;;;;;;;;;;;5074286;28;19924;-65
2023/04/09 00:32:23;;;;;;;;;;;;;;;;;;5072921;28;20033;-65
2023/04/09 00:34:50;;;;;;;;;;;;;;;;;;5074486;28;19927;-64
2023/04/09 00:37:16;;;;;;;;;;;;;;;;;;5071951;28;20040;-66
2023/04/09 00:39:41;;;;;;;;;;;;;;;;;;5071232;28;20425;-65
2023/04/09 00:42:07;;;;;;;;;;;;;;;;;;5054787;28;20289;-64
2023/04/09 00:44:33;;;;;;;;;;;;;;;;;;5056292;28;19986;-65
2023/04/09 00:46:59;;;;;;;;;;;;;;;;;;5073386;28;19931;-65
2023/04/09 00:49:25;;;;;;;;;;;;;;;;;;5074586;28;19921;-65
2023/04/09 00:51:51;;;;;;;;;;;;;;;;;;5074088;28;19970;-66
2023/04/09 00:54:17;;;;;;;;;;;;;;;;;;5069730;28;19959;-65
2023/04/09 00:56:43;;;;;;;;;;;;;;;;;;5074526;28;19925;-65
2023/04/09 00:59:09;;;;;;;;;;;;;;;;;;5074187;28;19924;-65
2023/04/09 01:01:35;;;;;;;;;;;;;;;;;;5055779;28;19979;-65
2023/04/09 01:04:01;;;;;;;;;;;;;;;;;;5071871;28;19928;-65
2023/04/09 01:06:27;;;;;;;;;;;;;;;;;;5055933;28;20270;-65
2023/04/09 01:08:53;;;;;;;;;;;;;;;;;;5065245;28;19960;-65
2023/04/09 01:11:18;;;;;;;;;;;;;;;;;;5072641;28;20019;-65
2023/04/09 01:13:45;;;;;;;;;;;;;;;;;;5071959;28;19924;-65
2023/04/09 01:16:11;;;;;;;;;;;;;;;;;;5070986;28;19986;-65
2023/04/09 01:18:36;;;;;;;;;;;;;;;;;;5052231;28;20010;-65
2023/04/09 01:21:02;;;;;;;;;;;;;;;;;;5069928;28;19928;-65
2023/04/09 01:23:28;;;;;;;;;;;;;;;;;;5069919;28;19928;-66
2023/04/09 01:25:54;;;;;;;;;;;;;;;;;;5071348;28;20285;-65
2023/04/09 01:28:20;;;;;;;;;;;;;;;;;;5068166;28;19927;-64
2023/04/09 01:30:46;;;;;;;;;;;;;;;;;;5053937;28;19921;-65
2023/04/09 01:33:12;;;;;;;;;;;;;;;;;;5072203;28;20274;-64
2023/04/09 01:35:38;;;;;;;;;;;;;;;;;;5071003;28;20581;-65
2023/04/09 01:38:04;;;;;;;;;;;;;;;;;;5053761;28;19920;-65
2023/04/09 01:40:30;;;;;;;;;;;;;;;;;;5064040;28;19921;-65
2023/04/09 01:42:56;;;;;;;;;;;;;;;;;;5067551;28;19927;-65
2023/04/09 01:45:21;;;;;;;;;;;;;;;;;;5072366;28;20023;-64
2023/04/09 01:47:47;;;;;;;;;;;;;;;;;;5072488;28;20350;-64
2023/04/09 01:50:13;;;;;;;;;;;;;;;;;;5072419;28;19921;-65
2023/04/09 01:52:39;;;;;;;;;;;;;;;;;;5072192;28;20254;-65
2023/04/09 01:55:05;;;;;;;;;;;;;;;;;;5072212;28;19924;-65
2023/04/09 01:57:31;;;;;;;;;;;;;;;;;;5073384;28;20346;-65
2023/04/09 01:59:57;;;;;;;;;;;;;;;;;;5066655;28;19927;-65
2023/04/09 02:02:23;;;;;;;;;;;;;;;;;;5073080;28;20015;-65
2023/04/09 02:04:49;;;;;;;;;;;;;;;;;;5073717;28;19947;-64
2023/04/09 02:07:15;;;;;;;;;;;;;;;;;;5072789;28;19920;-64
2023/04/09 02:09:41;;;;;;;;;;;;;;;;;;5054892;28;19966;-64
2023/04/09 02:12:06;;;;;;;;;;;;;;;;;;5071500;28;20678;-64
2023/04/09 02:14:32;;;;;;;;;;;;;;;;;;5071784;28;19931;-64
2023/04/09 02:16:58;;;;;;;;;;;;;;;;;;5051147;28;19925;-66
2023/04/09 02:19:24;;;;;;;;;;;;;;;;;;5069855;28;19932;-64
2023/04/09 02:21:50;;;;;;;;;;;;;;;;;;5070140;28;20664;-64
2023/04/09 02:24:16;;;;;;;;;;;;;;;;;;5070008;28;19931;-65
2023/04/09 02:26:42;;;;;;;;;;;;;;;;;;5072882;28;20446;-64
2023/04/09 02:29:08;;;;;;;;;;;;;;;;;;5052471;28;19951;-65
2023/04/09 02:31:34;;;;;;;;;;;;;;;;;;5068385;28;19967;-65
2023/04/09 02:34:00;;;;;;;;;;;;;;;;;;5060065;28;19925;-65
2023/04/09 02:36:26;;;;;;;;;;;;;;;;;;5072283;28;20359;-66
2023/04/09 02:38:52;;;;;;;;;;;;;;;;;;5071296;28;19971;-65
2023/04/09 02:41:18;;;;;;;;;;;;;;;;;;5053434;28;19974;-65
2023/04/09 02:43:44;;;;;;;;;;;;;;;;;;5071890;28;19989;-64
2023/04/09 02:46:10;;;;;;;;;;;;;;;;;;5071054;28;20578;-64
2023/04/09 02:48:36;;;;;;;;;;;;;;;;;;5069356;28;19926;-64
2023/04/09 02:51:02;;;;;;;;;;;;;;;;;;5055851;28;19932;-64
2023/04/09 02:53:28;;;;;;;;;;;;;;;;;;5071414;28;20006;-65
2023/04/09 02:55:54;;;;;;;;;;;;;;;;;;5054732;28;19927;-66
2023/04/09 02:58:19;;;;;;;;;;;;;;;;;;5070745;28;19920;-65
2023/04/09 03:00:45;;;;;;;;;;;;;;;;;;5070493;28;19924;-65
2023/04/09 03:03:11;;;;;;;;;;;;;;;;;;5070251;28;20035;-65
2023/04/09 03:30:06;;;;;;;;;;;;;;;;;;5059143;28;19943;-65
2023/04/09 03:32:32;;;;;;;;;;;;;;;;;;5069559;28;19928;-65
2023/04/09 03:34:58;;;;;;;;;;;;;;;;;;5082757;22;21645;-62
2023/04/09 03:37:24;;;;;;;;;;;;;;;;;;5071086;28;19980;-62
2023/04/09 03:39:50;;;;;;;;;;;;;;;;;;5068557;28;20003;-61
2023/04/09 03:42:15;;;;;;;;;;;;;;;;;;5068195;28;19924;-61
2023/04/09 03:44:41;;;;;;;;;;;;;;;;;;5068921;28;19978;-62
2023/04/09 03:47:07;;;;;;;;;;;;;;;;;;5065276;28;19924;-62
2023/04/09 03:49:33;;;;;;;;;;;;;;;;;;5069225;28;19935;-61
2023/04/09 03:51:59;;;;;;;;;;;;;;;;;;5068854;28;20397;-61
2023/04/09 03:54:25;;;;;;;;;;;;;;;;;;5067335;28;19921;-61
2023/04/09 03:56:51;;;;;;;;;;;;;;;;;;5070802;28;20015;-62
2023/04/09 03:59:17;;;;;;;;;;;;;;;;;;5070865;28;19999;-62
2023/04/09 04:01:43;;;;;;;;;;;;;;;;;;5071126;28;19921;-61
2023/04/09 04:04:09;;;;;;;;;;;;;;;;;;5061299;28;19936;-61
2023/04/09 04:06:35;;;;;;;;;;;;;;;;;;5069544;28;19925;-61
2023/04/09 04:09:01;;;;;;;;;;;;;;;;;;5069462;28;20327;-61
2023/04/09 04:11:27;;;;;;;;;;;;;;;;;;5066302;28;19928;-62
2023/04/09 04:13:54;;;;;;;;;;;;;;;;;;5071182;28;20018;-62
2023/04/09 04:16:20;;;;;;;;;;;;;;;;;;5068128;28;19924;-62
2023/04/09 04:18:46;;;;;;;;;;;;;;;;;;5069973;28;19927;-61
2023/04/09 04:21:12;;;;;;;;;;;;;;;;;;5069543;28;19921;-62
2023/04/09 04:23:38;;;;;;;;;;;;;;;;;;5070283;28;20017;-61
2023/04/09 04:26:05;;;;;;;;;;;;;;;;;;5069811;28;19955;-61
2023/04/09 04:28:31;;;;;;;;;;;;;;;;;;5071040;28;19920;-61
2023/04/09 04:30:57;;;;;;;;;;;;;;;;;;5068361;28;20345;-61
2023/04/09 04:33:23;;;;;;;;;;;;;;;;;;5068729;28;19924;-61
2023/04/09 04:35:49;;;;;;;;;;;;;;;;;;5049793;28;19925;-61
2023/04/09 04:38:15;;;;;;;;;;;;;;;;;;5071046;28;19932;-61
2023/04/09 04:40:41;;;;;;;;;;;;;;;;;;5070014;28;19921;-62
2023/04/09 04:43:07;;;;;;;;;;;;;;;;;;5068285;28;20023;-61
2023/04/09 04:45:33;;;;;;;;;;;;;;;;;;5067505;28;19948;-61
2023/04/09 04:47:59;;;;;;;;;;;;;;;;;;5069652;28;19950;-61
2023/04/09 04:50:24;;;;;;;;;;;;;;;;;;5052570;28;19947;-62
2023/04/09 04:52:50;;;;;;;;;;;;;;;;;;5067845;28;19924;-62
2023/04/09 04:55:16;;;;;;;;;;;;;;;;;;5070490;28;20007;-62
2023/04/09 04:57:42;;;;;;;;;;;;;;;;;;5065070;28;20270;-62
2023/04/09 05:00:08;;;;;;;;;;;;;;;;;;5068392;28;19920;-62
2023/04/09 05:02:34;;;;;;;;;;;;;;;;;;5066517;28;19929;-62
2023/04/09 05:05:00;;;;;;;;;;;;;;;;;;5067554;28;19952;-62
2023/04/09 05:07:26;;;;;;;;;;;;;;;;;;5069141;28;19921;-62
2023/04/09 05:09:52;;;;;;;;;;;;;;;;;;5069146;28;19921;-62
2023/04/09 05:12:18;;;;;;;;;;;;;;;;;;5072348;28;19924;-62
2023/04/09 05:14:44;;;;;;;;;;;;;;;;;;5071005;28;20325;-62
2023/04/09 05:17:09;;;;;;;;;;;;;;;;;;5072241;28;19932;-62
2023/04/09 05:19:35;;;;;;;;;;;;;;;;;;5067641;28;19921;-62
2023/04/09 05:22:01;;;;;;;;;;;;;;;;;;5072438;28;20062;-62
2023/04/09 05:24:27;;;;;;;;;;;;;;;;;;5073196;28;20064;-61
2023/04/09 05:26:53;;;;;;;;;;;;;;;;;;5073850;28;19964;-62
2023/04/09 05:29:19;;;;;;;;;;;;;;;;;;5072487;28;19927;-61
2023/04/09 05:31:45;;;;;;;;;;;;;;;;;;5072558;28;20665;-61
2023/04/09 05:34:11;;;;;;;;;;;;;;;;;;5069926;28;19925;-61
2023/04/09 05:36:37;;;;;;;;;;;;;;;;;;5070384;28;19960;-61
2023/04/09 05:39:02;;;;;;;;;;;;;;;;;;5070342;28;19935;-61
2023/04/09 05:41:28;;;;;;;;;;;;;;;;;;5074216;28;19921;-61
2023/04/09 05:43:54;;;;;;;;;;;;;;;;;;5055079;28;19986;-61
2023/04/09 05:46:21;;;;;;;;;;;;;;;;;;5071715;28;20266;-61
2023/04/09 05:48:47;;;;;;;;;;;;;;;;;;5073041;28;19927;-61
2023/04/09 05:51:14;;;;;;;;;;;;;;;;;;5073021;28;20385;-61
2023/04/09 05:53:40;;;;;;;;;;;;;;;;;;5071814;28;19966;-61
2023/04/09 05:56:06;;;;;;;;;;;;;;;;;;5072639;28;19975;-61
2023/04/09 05:58:32;;;;;;;;;;;;;;;;;;5072787;28;19931;-61
2023/04/09 06:00:57;;;;;;;;;;;;;;;;;;5072668;28;19966;-61
2023/04/09 06:03:23;;;;;;;;;;;;;;;;;;5072959;28;19934;-61
2023/04/09 06:05:49;;;;;;;;;;;;;;;;;;5074354;28;19977;-63
2023/04/09 06:08:15;;;;;;;;;;;;;;;;;;5060782;28;20331;-63
2023/04/09 06:10:41;;;;;;;;;;;;;;;;;;5071605;28;19920;-63
2023/04/09 06:13:07;;;;;;;;;;;;;;;;;;5074477;28;19920;-63
2023/04/09 06:15:33;;;;;;;;;;;;;;;;;;5071952;28;19924;-63
2023/04/09 06:17:59;;;;;;;;;;;;;;;;;;5054581;28;19924;-63
2023/04/09 06:20:25;;;;;;;;;;;;;;;;;;5054294;28;19988;-62
2023/04/09 06:22:50;;;;;;;;;;;;;;;;;;5052264;28;19934;-63
2023/04/09 06:25:16;;;;;;;;;;;;;;;;;;5067457;28;20523;-62
2023/04/09 06:27:42;;;;;;;;;;;;;;;;;;5074305;28;19974;-62
2023/04/09 06:30:08;;;;;;;;;;;;;;;;;;5073921;28;19920;-63
2023/04/09 06:32:34;;;;;;;;;;;;;;;;;;5073407;28;19974;-63
2023/04/09 06:35:00;;;;;;;;;;;;;;;;;;5085829;28;19924;-63
2023/04/09 06:37:26;;;;;;;;;;;;;;;;;;5094102;28;19981;-63
2023/04/09 06:39:52;;;;;;;;;;;;;;;;;;5075236;28;19928;-61
2023/04/09 06:42:18;;;;;;;;;;;;;;;;;;5093481;28;20277;-61
2023/04/09 06:44:44;;;;;;;;;;;;;;;;;;5074897;28;19994;-61
2023/04/09 06:47:10;;;;;;;;;;;;;;;;;;5093358;28;20003;-61
2023/04/09 06:49:36;;;;;;;;;;;;;;;;;;5093262;28;19920;-61
2023/04/09 06:52:02;;;;;;;;;;;;;;;;;;5093109;28;19924;-61
2023/04/09 06:54:28;;;;;;;;;;;;;;;;;;5092958;28;20327;-60
2023/04/09 06:56:54;;;;;;;;;;;;;;;;;;5091997;28;19927;-61
2023/04/09 06:59:20;;;;;;;;;;;;;;;;;;5091668;28;19947;-65
2023/04/09 07:01:46;;;;;;;;;;;;;;;;;;5072930;28;20099;-65
2023/04/09 07:04:12;;;;;;;;;;;;;;;;;;5074368;28;20443;-66
2023/04/09 07:06:39;;;;;;;;;;;;;;;;;;5087995;28;19970;-66
2023/04/09 07:09:05;;;;;;;;;;;;;;;;;;5089103;28;20269;-63
2023/04/09 07:11:31;;;;;;;;;;;;;;;;;;5073170;28;19952;-63
2023/04/09 07:13:57;;;;;;;;;;;;;;;;;;5091023;28;20009;-63
2023/04/09 07:16:23;;;;;;;;;;;;;;;;;;5090065;28;19985;-63
2023/04/09 07:18:49;;;;;;;;;;;;;;;;;;5092061;28;19931;-63
2023/04/09 07:21:15;;;;;;;;;;;;;;;;;;5093236;28;19920;-63
2023/04/09 07:23:41;;;;;;;;;;;;;;;;;;5073894;28;20385;-63
2023/04/09 07:26:07;;;;;;;;;;;;;;;;;;5073257;28;19931;-63
2023/04/09 07:28:33;;;;;;;;;;;;;;;;;;5073722;28;19924;-63
2023/04/09 07:31:00;;;;;;;;;;;;;;;;;;5074390;28;19954;-63
2023/04/09 07:33:26;;;;;;;;;;;;;;;;;;5092406;28;19960;-63
2023/04/09 07:35:51;;;;;;;;;;;;;;;;;;5074485;28;20412;-64
2023/04/09 07:38:17;;;;;;;;;;;;;;;;;;5073374;28;20016;-64
2023/04/09 07:40:43;;;;;;;;;;;;;;;;;;5091660;28;19927;-61
2023/04/09 07:43:09;;;;;;;;;;;;;;;;;;5091127;28;19923;-62
2023/04/09 07:45:35;;;;;;;;;;;;;;;;;;5090053;28;19972;-62
2023/04/09 07:48:01;;;;;;;;;;;;;;;;;;5089698;28;19924;-62
2023/04/09 07:50:27;;;;;;;;;;;;;;;;;;5092450;28;19970;-62
2023/04/09 07:52:53;;;;;;;;;;;;;;;;;;5092915;28;19928;-63
2023/04/09 07:55:19;;;;;;;;;;;;;;;;;;5092863;28;19927;-63
2023/04/09 07:57:45;;;;;;;;;;;;;;;;;;5092695;28;19920;-62
2023/04/09 08:00:11;;;;;;;;;;;;;;;;;;5073192;28;19975;-62
2023/04/09 08:02:37;;;;;;;;;;;;;;;;;;5085798;28;19921;-63
2023/04/09 08:05:03;;;;;;;;;;;;;;;;;;5085995;28;19951;-63
2023/04/09 08:07:29;;;;;;;;;;;;;;;;;;5090920;28;19920;-63
2023/04/09 08:09:55;;;;;;;;;;;;;;;;;;5091823;28;19924;-63
2023/04/09 08:12:21;;;;;;;;;;;;;;;;;;5090827;28;19921;-63
2023/04/09 08:14:47;;;;;;;;;;;;;;;;;;5090928;28;19921;-63
2023/04/09 08:17:13;;;;;;;;;;;;;;;;;;5092799;28;19931;-63
2023/04/09 08:19:39;;;;;;;;;;;;;;;;;;5092686;28;19923;-63
2023/04/09 08:22:05;;;;;;;;;;;;;;;;;;5091430;28;19924;-63
2023/04/09 08:24:31;;;;;;;;;;;;;;;;;;5092869;28;19930;-62
2023/04/09 08:26:57;;;;;;;;;;;;;;;;;;5092602;28;20348;-62
2023/04/09 08:29:23;;;;;;;;;;;;;;;;;;5092486;28;19928;-63
2023/04/09 08:31:49;;;;;;;;;;;;;;;;;;5092311;28;19920;-62
2023/04/09 08:34:16;;;;;;;;;;;;;;;;;;5092012;28;19921;-62
2023/04/09 08:36:42;;;;;;;;;;;;;;;;;;5086047;28;19925;-63
2023/04/09 08:39:08;;;;;;;;;;;;;;;;;;5071920;28;19920;-63
2023/04/09 08:41:34;;;;;;;;;;;;;;;;;;5071411;28;19924;-63
2023/04/09 08:44:00;;;;;;;;;;;;;;;;;;5071773;28;19929;-63
2023/04/09 08:46:26;;;;;;;;;;;;;;;;;;5073471;28;19943;-63
2023/04/09 08:48:52;;;;;;;;;;;;;;;;;;5057499;28;19924;-63
2023/04/09 08:51:18;;;;;;;;;;;;;;;;;;5075066;28;20446;-63
2023/04/09 08:53:43;;;;;;;;;;;;;;;;;;5085540;28;20008;-63
2023/04/09 08:56:10;;;;;;;;;;;;;;;;;;5095774;28;19920;-63
2023/04/09 08:58:36;;;;;;;;;;;;;;;;;;5095545;28;20451;-63
2023/04/09 09:01:02;;;;;;;;;;;;;;;;;;5093320;28;20421;-63
2023/04/09 09:03:28;;;;;;;;;;;;;;;;;;5093135;28;20346;-60
2023/04/09 09:05:54;;;;;;;;;;;;;;;;;;5093974;28;20357;-61
2023/04/09 09:08:20;;;;;;;;;;;;;;;;;;5095123;28;20315;-65
2023/04/09 09:10:45;;;;;;;;;;;;;;;;;;5073777;28;19920;-65
2023/04/09 09:13:11;;;;;;;;;;;;;;;;;;5086037;28;19944;-65
2023/04/09 09:15:37;;;;;;;;;;;;;;;;;;5093321;28;19934;-65
2023/04/09 09:18:03;;;;;;;;;;;;;;;;;;5094104;28;20323;-63
2023/04/09 09:20:29;;;;;;;;;;;;;;;;;;5074913;28;19965;-63
2023/04/09 09:22:55;;;;;;;;;;;;;;;;;;5093480;28;19963;-63
2023/04/09 09:25:23;;;;;;;;;;;;;;;;;;5094981;28;20309;-63
2023/04/09 09:27:49;;;;;;;;;;;;;;;;;;5094052;28;19935;-63
2023/04/09 09:30:15;;;;;;;;;;;;;;;;;;5088744;28;19928;-63
2023/04/09 09:32:41;;;;;;;;;;;;;;;;;;5069037;28;20361;-61
2023/04/09 09:35:07;;;;;;;;;;;;;;;;;;5093126;28;20365;-61
2023/04/09 09:37:33;;;;;;;;;;;;;;;;;;5091977;28;19974;-62
2023/04/09 09:39:59;;;;;;;;;;;;;;;;;;5093113;28;19931;-61
2023/04/09 09:42:26;;;;;;;;;;;;;;;;;;5092114;28;20381;-61
2023/04/09 09:44:51;;;;;;;;;;;;;;;;;;5094553;28;19949;-61
2023/04/09 09:47:18;;;;;;;;;;;;;;;;;;5092108;28;19924;-61
2023/04/09 09:49:45;;;;;;;;;;;;;;;;;;5094572;28;19920;-61
2023/04/09 09:52:10;;;;;;;;;;;;;;;;;;5091980;28;19924;-61
2023/04/09 09:54:36;;;;;;;;;;;;;;;;;;5082524;28;19920;-61
2023/04/09 09:57:02;;;;;;;;;;;;;;;;;;5093598;28;19924;-61
2023/04/09 09:59:28;;;;;;;;;;;;;;;;;;5094209;28;20032;-61
2023/04/09 10:01:54;;;;;;;;;;;;;;;;;;5072292;28;19924;-61
2023/04/09 10:04:21;;;;;;;;;;;;;;;;;;5091921;28;19925;-62
2023/04/09 10:06:47;;;;;;;;;;;;;;;;;;5093259;28;19927;-61
2023/04/09 10:09:12;;;;;;;;;;;;;;;;;;5090681;28;19928;-61
2023/04/09 10:11:41;;;;;;;;;;;;;;;;;;5092945;28;20435;-61
2023/04/09 10:14:07;;;;;;;;;;;;;;;;;;5092075;28;20010;-61
2023/04/09 10:16:33;;;;;;;;;;;;;;;;;;5073573;28;20011;-60
2023/04/09 10:19:00;;;;;;;;;;;;;;;;;;5092949;28;19931;-61
2023/04/09 10:21:26;;;;;;;;;;;;;;;;;;5088190;28;19920;-61
2023/04/09 10:23:52;;;;;;;;;;;;;;;;;;5062499;28;19928;-61
2023/04/09 10:26:18;;;;;;;;;;;;;;;;;;5071303;28;19931;-61
2023/04/09 10:28:44;;;;;;;;;;;;;;;;;;5091215;28;19920;-61
2023/04/09 10:31:10;;;;;;;;;;;;;;;;;;5091520;28;19920;-61
2023/04/09 10:33:36;;;;;;;;;;;;;;;;;;5073334;28;19920;-62
2023/04/09 10:36:03;;;;;;;;;;;;;;;;;;5075072;28;19928;-62
2023/04/09 10:38:29;;;;;;;;;;;;;;;;;;5074466;28;20336;-61
2023/04/09 10:40:55;;;;;;;;;;;;;;;;;;5088825;28;19966;-61
2023/04/09 10:43:22;;;;;;;;;;;;;;;;;;5088016;28;19975;-61
2023/04/09 10:45:52;;;;;;;;;;;;;;;;;;5093160;28;19935;-61
2023/04/09 10:48:18;;;;;;;;;;;;;;;;;;5092939;28;19928;-61
2023/04/09 10:50:44;;;;;;;;;;;;;;;;;;5091911;28;20285;-61
2023/04/09 10:53:10;;;;;;;;;;;;;;;;;;5087471;28;19924;-61
2023/04/09 10:55:36;;;;;;;;;;;;;;;;;;5094696;28;19955;-61
2023/04/09 10:58:02;;;;;;;;;;;;;;;;;;5091864;28;19920;-61
2023/04/09 11:00:28;;;;;;;;;;;;;;;;;;5089509;28;20483;-61
2023/04/09 11:02:53;;;;;;;;;;;;;;;;;;5072614;28;19925;-62
2023/04/09 11:05:19;;;;;;;;;;;;;;;;;;5087717;28;19924;-61
2023/04/09 11:07:47;;;;;;;;;;;;;;;;;;5089090;28;20216;-61
2023/04/09 11:10:13;;;;;;;;;;;;;;;;;;5092151;28;19924;-61
2023/04/09 11:12:39;;;;;;;;;;;;;;;;;;5092109;28;19924;-61
2023/04/09 11:15:05;;;;;;;;;;;;;;;;;;5090726;28;20362;-61
2023/04/09 11:17:31;;;;;;;;;;;;;;;;;;5089991;28;19965;-61
2023/04/09 11:19:57;;;;;;;;;;;;;;;;;;5075712;28;19920;-61
2023/04/09 11:22:23;;;;;;;;;;;;;;;;;;5074102;28;19932;-61
2023/04/09 11:24:50;;;;;;;;;;;;;;;;;;5073891;28;19969;-62
2023/04/09 11:27:18;;;;;;;;;;;;;;;;;;5074668;28;19926;-62
2023/04/09 11:29:44;;;;;;;;;;;;;;;;;;5092729;28;19973;-62
2023/04/09 11:32:10;;;;;;;;;;;;;;;;;;5093035;28;19928;-61
2023/04/09 11:34:36;;;;;;;;;;;;;;;;;;5089163;28;19928;-62
2023/04/09 11:37:05;;;;;;;;;;;;;;;;;;5074817;28;20384;-62
2023/04/09 11:39:31;;;;;;;;;;;;;;;;;;5092499;28;20442;-62
2023/04/09 11:41:57;;;;;;;;;;;;;;;;;;5092357;28;19928;-62
2023/04/09 11:44:23;;;;;;;;;;;;;;;;;;5091573;28;19927;-62
2023/04/09 11:46:49;;;;;;;;;;;;;;;;;;5091334;28;19978;-62
2023/04/09 11:49:15;;;;;;;;;;;;;;;;;;5091151;28;20526;-63
2023/04/09 11:51:41;;;;;;;;;;;;;;;;;;5082605;28;19925;-63
2023/04/09 11:54:07;;;;;;;;;;;;;;;;;;5085041;28;19966;-63
2023/04/09 11:56:34;;;;;;;;;;;;;;;;;;5073133;28;20019;-63
2023/04/09 11:59:00;;;;;;;;;;;;;;;;;;5091799;28;19924;-62
2023/04/09 12:01:26;;;;;;;;;;;;;;;;;;5089897;28;19930;-62
2023/04/09 12:03:52;;;;;;;;;;;;;;;;;;5094009;28;20361;-63
2023/04/09 12:06:18;;;;;;;;;;;;;;;;;;5090667;28;19920;-63
2023/04/09 12:08:43;;;;;;;;;;;;;;;;;;5092653;28;20372;-63
2023/04/09 12:11:09;;;;;;;;;;;;;;;;;;5090895;28;19920;-63
2023/04/09 12:13:35;;;;;;;;;;;;;;;;;;5092367;28;20386;-63
2023/04/09 12:16:02;;;;;;;;;;;;;;;;;;5091021;28;19930;-63
2023/04/09 12:18:28;;;;;;;;;;;;;;;;;;5092694;28;19927;-63
2023/04/09 12:20:54;;;;;;;;;;;;;;;;;;5095705;28;19920;-63
2023/04/09 12:23:20;;;;;;;;;;;;;;;;;;5096645;28;19931;-63
2023/04/09 12:25:46;;;;;;;;;;;;;;;;;;5091398;28;20304;-63
2023/04/09 12:28:14;;;;;;;;;;;;;;;;;;5089308;28;20021;-62
2023/04/09 12:30:40;;;;;;;;;;;;;;;;;;5074612;28;19963;-62
2023/04/09 12:33:06;;;;;;;;;;;;;;;;;;5088899;28;19964;-62
2023/04/09 12:35:33;;;;;;;;;;;;;;;;;;5075353;28;19932;-63
2023/04/09 12:37:59;;;;;;;;;;;;;;;;;;5076536;28;19926;-63
2023/04/09 12:40:25;;;;;;;;;;;;;;;;;;5094650;28;20007;-63
2023/04/09 12:42:51;;;;;;;;;;;;;;;;;;5076651;28;20315;-63
2023/04/09 12:45:17;;;;;;;;;;;;;;;;;;5074292;28;20006;-63
2023/04/09 12:47:43;;;;;;;;;;;;;;;;;;5093559;28;19924;-63
2023/04/09 12:50:09;;;;;;;;;;;;;;;;;;5071763;28;19924;-63
2023/04/09 12:52:34;;;;;;;;;;;;;;;;;;5091872;28;19927;-63
2023/04/09 12:55:00;;;;;;;;;;;;;;;;;;5095163;28;19931;-63
2023/04/09 12:57:26;;;;;;;;;;;;;;;;;;5094137;28;19920;-62
2023/04/09 12:59:52;;;;;;;;;;;;;;;;;;5090028;28;19981;-64
2023/04/09 13:02:18;;;;;;;;;;;;;;;;;;5088466;28;20357;-61
2023/04/09 13:04:44;;;;;;;;;;;;;;;;;;5095642;28;19920;-63
2023/04/09 13:07:11;;;;;;;;;;;;;;;;;;5093697;28;20392;-63
2023/04/09 13:09:36;;;;;;;;;;;;;;;;;;5094446;28;19942;-63
2023/04/09 13:12:02;;;;;;;;;;;;;;;;;;5093204;28;19924;-63
2023/04/09 13:14:28;;;;;;;;;;;;;;;;;;5094558;28;19943;-62
2023/04/09 13:16:54;;;;;;;;;;;;;;;;;;5095164;28;19931;-63
2023/04/09 13:19:20;;;;;;;;;;;;;;;;;;5092371;28;19928;-62
2023/04/09 13:21:46;;;;;;;;;;;;;;;;;;5074159;28;19924;-62
2023/04/09 13:24:12;;;;;;;;;;;;;;;;;;5092835;28;20392;-62
2023/04/09 13:26:38;;;;;;;;;;;;;;;;;;5073430;28;19958;-63
2023/04/09 13:29:04;;;;;;;;;;;;;;;;;;5075435;28;19920;-62
2023/04/09 13:31:30;;;;;;;;;;;;;;;;;;5072126;28;19928;-62
2023/04/09 13:33:56;;;;;;;;;;;;;;;;;;5094878;28;19924;-62
2023/04/09 13:36:21;;;;;;;;;;;;;;;;;;5068389;28;19924;-62
2023/04/09 13:38:47;;;;;;;;;;;;;;;;;;5072481;28;19923;-63
2023/04/09 13:41:14;;;;;;;;;;;;;;;;;;5089186;28;21884;-62
2023/04/09 13:43:40;;;;;;;;;;;;;;;;;;5092217;28;20483;-61
2023/04/09 13:46:05;;;;;;;;;;;;;;;;;;5094577;28;20003;-60
2023/04/09 13:48:31;;;;;;;;;;;;;;;;;;5093165;28;19977;-60
2023/04/09 13:50:57;;;;;;;;;;;;;;;;;;5092611;28;19924;-60
2023/04/09 13:53:24;;;;;;;;;;;;;;;;;;5092180;28;19997;-60
2023/04/09 13:55:50;;;;;;;;;;;;;;;;;;5091901;28;19955;-60
2023/04/09 13:58:16;;;;;;;;;;;;;;;;;;5072258;28;19970;-60
2023/04/09 14:00:42;;;;;;;;;;;;;;;;;;5093050;28;19929;-61
2023/04/09 14:03:08;;;;;;;;;;;;;;;;;;5101039;28;19980;-61
2023/04/09 14:05:34;;;;;;;;;;;;;;;;;;5108135;28;19924;-62
2023/04/09 14:08:00;;;;;;;;;;;;;;;;;;5093626;28;19924;-61
2023/04/09 14:10:26;;;;;;;;;;;;;;;;;;5074545;28;19924;-61
2023/04/09 14:12:52;;;;;;;;;;;;;;;;;;5094022;28;20267;-61
2023/04/09 14:15:18;;;;;;;;;;;;;;;;;;5093662;28;19920;-61
2023/04/09 14:17:44;;;;;;;;;;;;;;;;;;5088852;28;19924;-62
2023/04/09 14:20:10;;;;;;;;;;;;;;;;;;5075808;28;20319;-61
2023/04/09 14:22:35;;;;;;;;;;;;;;;;;;5092553;28;19928;-61
2023/04/09 14:25:01;;;;;;;;;;;;;;;;;;5074440;28;19920;-61
2023/04/09 14:27:27;;;;;;;;;;;;;;;;;;5091451;28;19943;-62
2023/04/09 14:29:53;;;;;;;;;;;;;;;;;;5093392;28;20416;-62
2023/04/09 14:32:19;;;;;;;;;;;;;;;;;;5095116;28;19927;-62
2023/04/09 14:34:45;;;;;;;;;;;;;;;;;;5093401;28;19931;-62
2023/04/09 14:37:11;;;;;;;;;;;;;;;;;;5090606;28;19923;-62
2023/04/09 14:39:37;;;;;;;;;;;;;;;;;;5092057;28;19997;-62
2023/04/09 14:42:03;;;;;;;;;;;;;;;;;;5092273;28;19928;-62
2023/04/09 14:44:30;;;;;;;;;;;;;;;;;;5090297;28;19920;-61
2023/04/09 14:46:56;;;;;;;;;;;;;;;;;;5092422;28;19930;-64
2023/04/09 14:49:22;;;;;;;;;;;;;;;;;;5091916;28;19920;-65
2023/04/09 14:51:48;;;;;;;;;;;;;;;;;;5056422;28;19924;-64
2023/04/09 14:54:14;;;;;;;;;;;;;;;;;;5070659;28;19935;-66
2023/04/09 14:56:40;;;;;;;;;;;;;;;;;;5089041;28;19920;-64
2023/04/09 14:59:06;;;;;;;;;;;;;;;;;;5092174;28;19920;-64
2023/04/09 15:01:32;;;;;;;;;;;;;;;;;;5091466;28;20400;-65
2023/04/09 15:03:58;;;;;;;;;;;;;;;;;;5086162;28;19943;-65
2023/04/09 15:06:25;;;;;;;;;;;;;;;;;;5090465;28;19978;-65
2023/04/09 15:08:51;;;;;;;;;;;;;;;;;;5091892;28;19930;-65
2023/04/09 15:11:16;;;;;;;;;;;;;;;;;;5092674;28;20006;-65
2023/04/09 15:13:42;;;;;;;;;;;;;;;;;;5074461;28;20339;-65
2023/04/09 15:16:08;;;;;;;;;;;;;;;;;;5089425;28;19932;-65
2023/04/09 15:18:36;;;;;;;;;;;;;;;;;;5090126;28;20390;-65
2023/04/09 15:21:02;;;;;;;;;;;;;;;;;;5092044;28;19927;-60
2023/04/09 15:23:27;;;;;;;;;;;;;;;;;;5091330;28;19924;-61
2023/04/09 15:25:53;;;;;;;;;;;;;;;;;;5091781;28;19939;-61
2023/04/09 15:28:19;;;;;;;;;;;;;;;;;;5092090;28;19921;-61
2023/04/09 15:30:45;;;;;;;;;;;;;;;;;;5091754;28;19920;-61
2023/04/09 15:33:11;;;;;;;;;;;;;;;;;;5074349;28;19950;-61
2023/04/09 15:35:37;;;;;;;;;;;;;;;;;;5049744;28;19924;-61
2023/04/09 15:38:03;;;;;;;;;;;;;;;;;;5051333;28;19931;-61
2023/04/09 15:40:30;;;;;;;;;;;;;;;;;;5051290;28;19921;-61
2023/04/09 15:42:56;;;;;;;;;;;;;;;;;;5051502;28;19999;-61
2023/04/09 15:45:22;;;;;;;;;;;;;;;;;;5051478;28;19920;-61
2023/04/09 15:47:48;;;;;;;;;;;;;;;;;;5060153;28;19978;-61
2023/04/09 15:50:14;;;;;;;;;;;;;;;;;;5066566;22;20331;-63
2023/04/09 15:52:40;;;;;;;;;;;;;;;;;;5053308;28;20012;-64
2023/04/09 15:55:06;;;;;;;;;;;;;;;;;;5051106;28;19921;-64
2023/04/09 15:57:32;;;;;;;;;;;;;;;;;;5048458;28;20370;-64
2023/04/09 15:59:57;;;;;;;;;;;;;;;;;;5062805;28;19925;-64
2023/04/09 16:02:23;;;;;;;;;;;;;;;;;;5051560;28;19931;-64
2023/04/09 16:04:49;;;;;;;;;;;;;;;;;;5034956;28;19925;-64
2023/04/09 16:07:16;;;;;;;;;;;;;;;;;;5045519;28;19929;-64
2023/04/09 16:09:42;;;;;;;;;;;;;;;;;;5051984;28;19940;-64
2023/04/09 16:12:08;;;;;;;;;;;;;;;;;;5035945;28;20231;-64
2023/04/09 16:14:33;;;;;;;;;;;;;;;;;;5044820;28;20258;-64
2023/04/09 16:16:59;;;;;;;;;;;;;;;;;;5032838;28;19925;-64
2023/04/09 16:19:25;;;;;;;;;;;;;;;;;;5041796;28;19920;-62
2023/04/09 16:21:52;;;;;;;;;;;;;;;;;;5051667;28;19921;-62
2023/04/09 16:24:17;;;;;;;;;;;;;;;;;;5048087;28;20029;-62
2023/04/09 16:26:43;;;;;;;;;;;;;;;;;;5049896;28;20460;-62
2023/04/09 16:29:09;;;;;;;;;;;;;;;;;;5050591;28;20162;-62
2023/04/09 16:31:35;;;;;;;;;;;;;;;;;;5051537;28;19921;-65
2023/04/09 16:34:01;;;;;;;;;;;;;;;;;;5046209;28;19931;-65
2023/04/09 16:36:27;;;;;;;;;;;;;;;;;;5048907;28;20246;-65
2023/04/09 16:38:53;;;;;;;;;;;;;;;;;;5048137;28;19936;-65
2023/04/09 16:41:19;;;;;;;;;;;;;;;;;;5049476;28;20563;-65
2023/04/09 16:43:48;;;;;;;;;;;;;;;;;;5049631;28;19963;-65
2023/04/09 16:46:15;;;;;;;;;;;;;;;;;;5049023;28;19936;-61
2023/04/09 16:48:41;;;;;;;;;;;;;;;;;;5050097;28;19928;-62
2023/04/09 16:51:06;;;;;;;;;;;;;;;;;;5047779;28;19929;-61
2023/04/09 16:53:34;;;;;;;;;;;;;;;;;;5032817;28;19924;-61
2023/04/09 16:56:00;;;;;;;;;;;;;;;;;;5050038;28;19931;-61
2023/04/09 16:58:26;;;;;;;;;;;;;;;;;;5050588;28;19921;-61
2023/04/09 17:00:52;;;;;;;;;;;;;;;;;;5050524;28;20258;-61